Cloquet, MN (55720)

11:15 PM CST on February 20, 2017 (GMT -0600)
Cloquet, MN | | Change Station

Elev 1168 ft 46.70 °N, 92.45 °W | Updated 1 second ago

Overcast
Overcast
43.9 °F
Feels Like 42 °F
N
3.6
Wind Variable Wind from West
Gusts 7.4 mph

Today
High -- | Low -- °F
--% Chance of Precip.
Yesterday
High -- | Low -- °F
Precip. -- in
Pressure 29.64 in
Visibility 10.0 miles
Clouds Overcast 800 ft
Windchill 42 °F
Dew Point 41 °F
Humidity 91%
Rainfall 0.91 in
Snow Depth Not available.
7:04 AM 5:42 PM
Waning Crescent, 28% visible
METAR KCOQ 210455Z AUTO 26013G18KT 10SM OVC008 06/05 A2964 RMK AO2
Pressure 29.64 in
Visibility 10.0 miles
Clouds Overcast 800 ft
Windchill 42 °F
Dew Point 41 °F
Humidity 91%
Rainfall 0.91 in
Snow Depth Not available.
7:04 AM 5:42 PM
Waning Crescent, 28% visible
METAR KCOQ 210455Z AUTO 26013G18KT 10SM OVC008 06/05 A2964 RMK AO2

Get Your Daily Forecast Email!

Thanks for signing up!

Be on the lookout for a verification email in your inbox.

You'll start receiving the daily forecast at 8 AM.

×

10-Day Weather Forecast

Almanac

Astronomy

Feb. 20, 2017 Rise Set
Actual Time
Civil Twilight
Nautical Twilight
Astronomical Twilight
Moon
Length of Visible Light
Length of Day
Tomorrow will be .
, % of the Moon is Illuminated

Today's Extremes

State Highs State Lows

Community

WunderPhotos

Upload Photos

1,962,540 photos uploaded!

WunderBlog® & News

Nearby

Air Quality

  Air Quality AQ Index Pollutant
Not available.

Snow Depth

Station Depth Elevation

Earthquake Activity

City Distance Mag. Time & Date
Minimum magnitude displayed is 2.5.

Coastal Water Temperatures

Place Temperature

Stations

Nearby Weather Stations

Station Location Temp. Windchill Dew Point Humidity Wind Precip. Elev Updated Type
                   

Watches & Warnings

There are currently no watches in effect.